createdAt,value
2014-08-15T08:26:32.209Z,200
2014-08-15T08:26:50.412Z,202
2014-08-15T08:27:08.600Z,190
2014-08-15T08:27:26.788Z,201
2014-08-15T08:27:44.991Z,203
2014-08-15T08:28:03.179Z,207
2014-08-15T08:28:21.366Z,198
2014-08-15T08:28:39.556Z,195
2014-08-15T09:41:53.369Z,508
2014-08-15T09:42:11.556Z,492
2014-08-15T09:42:29.745Z,507
2014-08-15T09:42:47.948Z,504
2014-08-15T09:43:06.135Z,501
2014-08-15T09:43:24.325Z,493
2014-08-15T09:43:42.528Z,508
2014-08-15T09:44:00.716Z,495
2014-08-15T09:44:18.903Z,494
2014-08-15T09:44:37.109Z,507
2014-08-15T09:44:55.297Z,503
2014-08-15T09:45:13.500Z,498
2014-08-15T09:45:31.688Z,499
2014-08-15T09:45:49.876Z,505
2014-08-15T09:46:08.063Z,508
2014-08-15T09:46:26.268Z,45
2014-08-15T09:46:44.456Z,47
2014-08-15T09:47:02.643Z,37
2014-08-15T09:47:20.831Z,54
2014-08-15T09:47:39.020Z,56
2014-08-15T09:47:57.224Z,51
2014-08-15T09:48:15.411Z,48
2014-08-15T09:48:33.600Z,48
2014-08-15T09:48:51.787Z,58
2014-08-15T09:49:09.990Z,53
2014-08-15T09:49:28.180Z,55
2014-08-15T09:49:46.367Z,53
2014-08-15T09:50:04.586Z,56
2014-08-15T09:50:22.773Z,58
2014-08-15T09:50:40.963Z,58
2014-08-15T09:50:59.150Z,51
2014-08-15T09:51:17.338Z,50
2014-08-15T09:51:35.544Z,48
2014-08-15T09:51:53.732Z,48
2014-08-15T09:52:11.919Z,49
2014-08-15T09:52:30.109Z,48
2014-08-15T09:52:48.296Z,48
2014-08-15T09:53:06.484Z,47
2014-08-15T09:53:24.702Z,45
2014-08-15T09:53:42.892Z,45
2014-08-15T09:54:01.079Z,45
2014-08-15T09:54:19.267Z,44
2014-08-15T09:54:37.456Z,44
2014-08-15T09:54:55.659Z,44
2014-08-15T09:55:13.847Z,43
2014-08-15T09:55:32.034Z,43
2014-08-15T09:55:50.224Z,43
2014-08-15T09:56:08.411Z,43
2014-08-15T09:56:26.599Z,43
2014-08-15T09:56:44.788Z,43
2014-08-15T09:57:02.992Z,42
2014-08-15T09:57:21.179Z,42
2014-08-15T09:57:39.367Z,41
2014-08-15T09:57:57.556Z,41
2014-08-15T09:58:15.744Z,40
2014-08-15T09:58:33.931Z,40
2014-08-15T09:58:52.136Z,39
2014-08-15T09:59:10.324Z,39
2014-08-15T09:59:28.511Z,38
2014-08-15T09:59:46.699Z,38
2014-08-15T10:00:04.888Z,38
2014-08-15T10:00:23.076Z,37
2014-08-15T10:00:41.263Z,37
2014-08-15T10:00:59.453Z,37
2014-08-15T10:01:17.656Z,37
2014-08-15T10:01:35.843Z,37
2014-08-15T10:01:54.031Z,36
2014-08-15T10:02:12.220Z,36
2014-08-15T10:02:30.408Z,36
2014-08-15T10:02:48.595Z,36
2014-08-15T10:03:06.785Z,36
2014-08-15T10:03:24.988Z,36
2014-08-15T10:03:43.175Z,36
2014-08-15T10:04:01.363Z,35
2014-08-15T10:04:19.552Z,35
2014-08-15T10:04:37.740Z,35
2014-08-15T10:04:55.927Z,34
2014-08-15T10:05:14.133Z,33
2014-08-15T10:05:32.320Z,32
2014-08-15T10:05:50.508Z,32
2014-08-15T10:06:08.711Z,31
2014-08-15T10:06:26.886Z,30
2014-08-15T10:06:45.089Z,29
2014-08-15T10:07:03.276Z,29
2014-08-15T10:07:21.465Z,28
2014-08-15T10:07:39.652Z,28
2014-08-15T10:07:57.840Z,28
2014-08-15T10:08:16.027Z,27
2014-08-15T10:08:34.233Z,27
2014-08-15T10:08:52.421Z,27
2014-08-15T10:09:10.608Z,27
2014-08-15T10:09:28.798Z,28
2014-08-15T10:09:46.985Z,15
2014-08-15T10:10:05.173Z,28
2014-08-15T10:10:23.376Z,28
2014-08-15T10:10:41.565Z,28
2014-08-15T10:10:59.753Z,28
2014-08-15T10:11:17.940Z,29
2014-08-15T10:11:36.130Z,29
2014-08-15T10:11:54.333Z,29
2014-08-15T10:12:12.521Z,29
2014-08-15T10:12:30.708Z,29
2014-08-15T10:12:48.897Z,30
2014-08-15T10:13:07.084Z,30
2014-08-15T10:13:25.272Z,30
2014-08-15T10:13:43.461Z,30
2014-08-15T10:14:01.664Z,30
2014-08-15T10:14:19.852Z,30
2014-08-15T10:14:38.039Z,30
2014-08-15T10:14:56.229Z,31
2014-08-15T10:15:14.416Z,31
2014-08-15T10:15:32.619Z,31
2014-08-15T10:15:50.810Z,31
2014-08-15T10:16:08.997Z,31
2014-08-15T10:16:27.185Z,31
2014-08-15T10:16:45.372Z,31
2014-08-15T10:17:03.577Z,31
2014-08-15T10:17:21.765Z,31
2014-08-15T10:17:39.952Z,31
2014-08-15T10:17:58.142Z,31
2014-08-15T10:18:16.329Z,31
2014-08-15T10:18:34.517Z,31
2014-08-15T10:18:52.705Z,31
2014-08-15T10:19:10.909Z,31
2014-08-15T10:19:29.096Z,31
2014-08-15T10:19:47.284Z,31
2014-08-15T10:20:05.489Z,31
2014-08-15T10:20:23.676Z,31
2014-08-15T10:20:41.864Z,31
2014-08-15T10:21:00.054Z,31
2014-08-15T10:21:18.242Z,31
2014-08-15T10:21:36.429Z,31
2014-08-15T10:21:54.633Z,31
2014-08-15T10:22:12.821Z,31
2014-08-15T10:22:31.008Z,31
2014-08-15T10:22:49.196Z,30
2014-08-15T10:23:07.385Z,30
2014-08-15T10:23:25.588Z,29
2014-08-15T10:23:43.776Z,29
2014-08-15T10:24:01.965Z,27
2014-08-15T10:24:20.153Z,27
2014-08-15T10:24:38.340Z,26
2014-08-15T10:24:56.530Z,26
2014-08-15T10:25:14.717Z,25
2014-08-15T10:25:32.921Z,25
2014-08-15T10:25:51.108Z,25
2014-08-15T10:26:09.298Z,25
2014-08-15T10:26:27.485Z,25
2014-08-15T10:26:45.673Z,26
2014-08-15T10:27:03.878Z,27
2014-08-15T10:27:22.065Z,29
2014-08-15T10:27:40.253Z,29
2014-08-15T10:27:58.442Z,29
2014-08-15T10:28:16.630Z,28
2014-08-15T10:28:34.833Z,28
2014-08-15T10:28:53.020Z,28
2014-08-15T10:29:11.210Z,27
2014-08-15T10:29:29.397Z,27
2014-08-15T10:29:47.585Z,27
2014-08-15T10:30:05.773Z,28
2014-08-15T10:30:23.961Z,28
2014-08-15T10:30:42.148Z,29
2014-08-15T10:31:00.339Z,30
2014-08-15T10:31:18.542Z,32
2014-08-15T10:31:36.729Z,34
2014-08-15T10:31:54.917Z,33
2014-08-15T10:32:13.106Z,32
2014-08-15T10:32:31.294Z,31
2014-08-15T10:32:49.497Z,31
2014-08-15T10:33:07.687Z,31
2014-08-15T10:33:25.874Z,31
2014-08-15T10:33:44.062Z,30
2014-08-15T10:34:02.249Z,30
2014-08-15T10:34:20.439Z,28
2014-08-15T10:34:38.642Z,27
2014-08-15T10:34:56.829Z,26
2014-08-15T10:35:15.019Z,25
2014-08-15T10:35:33.206Z,24
2014-08-15T10:35:51.409Z,23
2014-08-15T10:36:09.599Z,22
2014-08-15T10:36:27.786Z,22
2014-08-15T10:36:45.974Z,21
2014-08-15T10:37:04.161Z,21
2014-08-15T10:37:22.366Z,21
2014-08-15T10:37:40.554Z,21
2014-08-15T10:37:58.741Z,21
2014-08-15T10:38:16.930Z,22
2014-08-15T10:38:35.117Z,22
2014-08-15T10:38:53.321Z,22
2014-08-15T10:39:11.510Z,22
2014-08-15T10:39:29.698Z,23
2014-08-15T10:39:47.885Z,23
2014-08-15T10:40:06.088Z,23
2014-08-15T10:40:24.279Z,23
2014-08-15T10:40:42.466Z,23
2014-08-15T10:41:00.654Z,24
2014-08-15T10:41:18.842Z,25
2014-08-15T10:41:37.045Z,26
2014-08-15T10:41:55.233Z,27
2014-08-15T10:42:13.420Z,28
2014-08-15T10:42:31.611Z,29
2014-08-15T10:42:49.814Z,30
2014-08-15T10:43:08.001Z,31
2014-08-15T10:43:26.190Z,31
2014-08-15T10:43:44.393Z,32
2014-08-15T10:44:02.581Z,33
2014-08-15T10:44:20.770Z,35
2014-08-15T10:44:38.973Z,36
2014-08-15T10:44:57.161Z,38
2014-08-15T10:45:15.348Z,41
2014-08-15T10:45:33.538Z,49
2014-08-15T10:45:51.741Z,44
2014-08-15T10:46:09.928Z,45
2014-08-15T10:46:28.118Z,47
2014-08-15T10:46:46.321Z,47
2014-08-15T10:47:04.508Z,47
2014-08-15T10:47:22.698Z,48
2014-08-15T10:47:40.901Z,49
2014-08-15T10:47:59.089Z,64
2014-08-15T10:48:17.276Z,67
2014-08-15T10:48:35.466Z,70
2014-08-15T10:48:53.669Z,70
2014-08-15T10:49:11.856Z,70
2014-08-15T10:49:30.046Z,61
2014-08-15T10:49:48.233Z,55
2014-08-15T10:50:06.436Z,54
2014-08-15T10:50:24.626Z,54
2014-08-15T10:50:42.813Z,54
2014-08-15T10:51:01.001Z,54
2014-08-15T10:51:19.204Z,55
2014-08-15T10:51:37.393Z,59
2014-08-15T10:51:55.597Z,64
2014-08-15T10:52:13.784Z,70
2014-08-15T10:52:31.974Z,73
2014-08-15T10:52:50.161Z,73
2014-08-15T10:53:08.380Z,69
2014-08-15T10:53:26.569Z,62
2014-08-15T10:53:44.757Z,59
2014-08-15T10:54:02.944Z,59
2014-08-15T10:54:21.147Z,57
2014-08-15T10:54:39.337Z,54
2014-08-15T10:54:57.524Z,53
2014-08-15T10:55:15.728Z,52
2014-08-15T10:55:33.917Z,50
2014-08-15T10:55:52.105Z,49
2014-08-15T10:56:10.292Z,48
2014-08-15T10:56:28.495Z,47
2014-08-15T10:56:46.685Z,46
2014-08-15T10:57:04.872Z,45
2014-08-15T10:57:23.075Z,43
2014-08-15T10:57:41.264Z,42
2014-08-15T10:57:59.451Z,41
2014-08-15T10:58:17.654Z,40
2014-08-15T10:58:35.845Z,39
2014-08-15T10:58:54.032Z,37
2014-08-15T10:59:12.236Z,35
2014-08-15T10:59:30.423Z,33
2014-08-15T10:59:48.613Z,31
2014-08-15T11:00:06.816Z,29
2014-08-15T11:00:25.003Z,28
2014-08-15T11:00:43.193Z,27
2014-08-15T11:01:01.396Z,26
2014-08-15T11:01:19.583Z,25
2014-08-15T11:01:37.771Z,24
2014-08-15T11:01:55.960Z,24
2014-08-15T11:02:14.163Z,23
2014-08-15T11:02:32.351Z,23
2014-08-15T11:02:50.540Z,22
2014-08-15T11:03:08.744Z,22
2014-08-15T11:03:26.931Z,22
2014-08-15T11:03:45.119Z,22
2014-08-15T11:04:03.308Z,22
2014-08-15T11:04:21.511Z,22
2014-08-15T11:04:39.699Z,22
2014-08-15T11:04:57.888Z,22
2014-08-15T11:05:16.076Z,22
2014-08-15T11:05:34.279Z,22
2014-08-15T12:36:28.751Z,509
2014-08-15T12:36:46.938Z,502
2014-08-15T12:37:05.143Z,509
2014-08-15T12:37:23.346Z,509
2014-08-15T12:37:41.534Z,497
2014-08-15T12:37:59.723Z,494
2014-08-15T12:38:18.208Z,496
2014-08-15T12:38:36.130Z,3
2014-08-15T12:38:54.317Z,4
2014-08-15T12:39:12.506Z,4
2014-08-15T12:39:30.693Z,4
2014-08-15T12:39:48.881Z,4
2014-08-15T12:40:07.070Z,4
2014-08-15T12:40:25.258Z,4
2014-08-15T12:40:43.445Z,4
2014-08-15T12:41:01.635Z,4
2014-08-15T12:41:19.838Z,4
2014-08-15T12:41:38.025Z,4
2014-08-15T12:41:56.213Z,4
2014-08-15T12:42:14.402Z,4
2014-08-15T12:42:32.590Z,4
2014-08-15T12:42:50.777Z,4
2014-08-15T12:43:08.967Z,4
2014-08-15T12:43:27.154Z,4
2014-08-15T12:43:45.342Z,5
2014-08-15T12:44:03.531Z,5
2014-08-15T12:44:21.734Z,5
2014-08-15T12:44:39.922Z,5
2014-08-15T12:44:58.109Z,6
2014-08-15T12:45:16.299Z,6
2014-08-15T12:45:34.486Z,6
2014-08-15T19:20:55.809Z,162
2014-08-15T19:21:13.996Z,156
2014-08-15T19:21:32.199Z,157
2014-08-15T19:21:50.389Z,161
2014-08-15T19:22:08.576Z,145
2014-08-15T19:22:26.780Z,156
2014-08-15T19:22:44.968Z,152
2014-08-15T19:23:03.171Z,149
2014-08-15T19:23:21.359Z,154
2014-08-15T19:23:39.562Z,162
2014-08-15T19:23:57.752Z,157
2014-08-15T19:24:15.940Z,149
2014-08-15T19:24:34.143Z,148
2014-08-15T19:24:52.332Z,159
2014-08-15T19:25:10.520Z,155
2014-08-15T19:25:28.723Z,160
2014-08-15T19:25:46.926Z,160
2014-08-15T19:26:05.117Z,148
2014-08-15T19:26:23.304Z,161
2014-08-15T19:26:41.507Z,159
2014-08-15T19:26:59.696Z,147
2014-08-15T19:27:17.899Z,162
2014-08-15T19:27:36.086Z,146
2014-08-15T19:27:54.290Z,146
2014-08-15T19:28:12.479Z,147
2014-08-15T19:28:30.682Z,147
2014-08-15T19:28:48.870Z,155
2014-08-15T19:29:07.059Z,147
2014-08-15T19:29:25.262Z,158
2014-08-15T19:43:55.322Z,146
2014-08-15T19:44:13.509Z,140
2014-08-15T19:44:31.714Z,140
2014-08-15T19:44:49.902Z,150
2014-08-15T19:45:08.105Z,144
2014-08-15T19:45:26.293Z,154
2014-08-15T19:45:44.496Z,140
2014-08-15T19:46:02.684Z,141
2014-08-15T19:46:20.887Z,143
2014-08-15T19:46:39.078Z,154
2014-08-15T19:46:57.281Z,145
2014-08-15T19:47:15.468Z,150
2014-08-15T19:47:33.672Z,151
2014-08-15T19:47:51.860Z,144
2014-08-15T19:48:10.063Z,153
2014-08-15T19:48:28.250Z,147
2014-08-15T19:48:46.456Z,151
2014-08-15T19:49:04.690Z,155
2014-08-15T19:49:22.893Z,151
2014-08-15T19:49:41.084Z,140
2014-08-15T19:49:59.287Z,143
2014-08-15T19:50:17.490Z,153
2014-08-15T19:50:35.677Z,142
2014-08-15T19:50:53.881Z,141
2014-08-15T19:51:12.085Z,155
2014-08-15T19:51:30.272Z,145
2014-08-15T19:51:48.463Z,147
2014-08-15T19:52:06.666Z,148
2014-08-15T19:52:24.853Z,155
2014-08-15T19:52:43.056Z,153
2014-08-15T19:53:01.245Z,141
2014-08-15T19:53:19.448Z,142
2014-08-15T19:53:37.635Z,146
2014-08-15T19:53:55.842Z,153
2014-08-15T19:54:14.029Z,154
2014-08-15T19:54:32.232Z,143
2014-08-15T19:54:50.420Z,149
2014-08-15T19:55:08.625Z,154
2014-08-15T19:55:26.812Z,140
2014-08-15T19:55:45.015Z,140
2014-08-15T19:56:03.205Z,153
2014-08-15T19:56:21.408Z,152
2014-08-15T19:56:39.596Z,147
2014-08-15T19:56:57.783Z,155
2014-08-15T19:57:16.019Z,156
2014-08-15T19:57:34.223Z,157
2014-08-15T19:57:52.410Z,156
2014-08-15T19:58:10.615Z,156
2014-08-15T19:58:28.803Z,156
2014-08-15T19:58:47.006Z,154
2014-08-15T19:59:05.193Z,144
2014-08-15T19:59:23.398Z,144
2014-08-15T19:59:41.586Z,146
2014-08-15T19:59:59.789Z,149
2014-08-15T20:00:17.979Z,141
2014-08-15T20:00:36.182Z,146
2014-08-15T20:00:54.385Z,151
2014-08-15T20:01:12.572Z,144
2014-08-15T20:01:30.777Z,149
2014-08-15T20:01:48.965Z,155
2014-08-15T20:02:07.152Z,141
2014-08-15T20:02:25.358Z,141
2014-08-15T20:02:43.561Z,141
2014-08-15T20:03:01.748Z,152
2014-08-15T20:03:19.951Z,148
2014-08-15T20:03:38.141Z,143
2014-08-15T20:03:56.344Z,142
2014-08-15T20:04:14.531Z,142
2014-08-15T20:04:32.722Z,148
2014-08-15T20:04:50.925Z,145
2014-08-15T20:05:09.113Z,142
2014-08-15T20:05:27.316Z,154
2014-08-15T20:05:45.504Z,144
2014-08-15T20:06:03.707Z,142
2014-08-15T20:06:25.879Z,145
2014-08-15T20:06:44.085Z,145
2014-08-15T20:07:02.273Z,156
2014-08-15T20:07:20.476Z,152
2014-08-15T20:07:38.663Z,153
2014-08-15T20:07:56.868Z,154
2014-08-15T20:08:15.055Z,156
2014-08-15T20:08:33.258Z,150
2014-08-15T20:08:51.449Z,156
2014-08-15T20:09:09.652Z,151
